Kirkconnel, United Kingdom
Current Conditions -  °F | °C
As of 3:50 AM on Thursday 29 Jan 2015 (Local Time) from EGPK Reporting Station
Scattered Clouds Scattered Clouds  
Wind Chill: 29°   Ceiling: Unl
Heat Index: 39°   Visibility: 6mi
Dew Point: 32°   Wind: 21mph
Humidity: 75%   Direction: 270°W
Pressure: 29"   Gusts: NA
Location:  55.39°N, 4°W
Report Text: EGPK 290350Z 27018KT 9999 FEW015CB SCT038 04/M00 Q0982
Loading
Personal Weather Stations






























Interactive Weather Map New forecast layout! Learn more

10-Day Weather Forecast

Advertisements
Track Severe Weather on mobile